PVI398 LIAU-LIRA
Flight info
| Callsign | PVI398 |
|---|---|
| Flight time | N/A |
| Altitude | 2000 |
| Route | MONDRAGONE TERRACINA APRILIA LARIANO |
| Aircraft | C185/L-VGD/A |
Departure
| Time | 2026-04-19 07:30 |
|---|---|
| Airport | Capua Airport (LIAU) |
Arrival
| Time | N/A |
|---|---|
| Airport | Ciampino–G. B. Pastine International Airport (LIRA) |
| Time | Latitude | Longitude | Altitude | Speed | Heading |
|---|---|---|---|---|---|
| 2026-04-19 07:18 | 41.11574 | 14.18628 | 71 ft | 0 kts | 141° |
| 2026-04-19 07:25 | 41.11572 | 14.18631 | 71 ft | 2 kts | 78° |
| 2026-04-19 07:25 | 41.11577 | 14.18626 | 71 ft | 4 kts | 274° |
| 2026-04-19 07:25 | 41.11587 | 14.18555 | 67 ft | 10 kts | 283° |
| 2026-04-19 07:26 | 41.11605 | 14.18474 | 71 ft | 8 kts | 276° |
| 2026-04-19 07:26 | 41.11607 | 14.18408 | 71 ft | 8 kts | 271° |
| 2026-04-19 07:26 | 41.11607 | 14.18385 | 71 ft | 0 kts | 267° |
| 2026-04-19 07:26 | 41.11606 | 14.18381 | 71 ft | 0 kts | 267° |
| 2026-04-19 07:30 | 41.11598 | 14.18291 | 71 ft | 38 kts | 263° |
| 2026-04-19 07:30 | 41.11541 | 14.17614 | 182 ft | 103 kts | 263° |
| 2026-04-19 07:30 | 41.11513 | 14.16529 | 500 ft | 128 kts | 277° |
| 2026-04-19 07:30 | 41.11579 | 14.15268 | 680 ft | 139 kts | 274° |
| 2026-04-19 07:31 | 41.11603 | 14.13998 | 857 ft | 135 kts | 272° |
| 2026-04-19 07:31 | 41.11612 | 14.12772 | 1029 ft | 131 kts | 271° |
| 2026-04-19 07:31 | 41.11620 | 14.11571 | 1199 ft | 129 kts | 271° |
| 2026-04-19 07:31 | 41.11628 | 14.10389 | 1372 ft | 128 kts | 270° |
| 2026-04-19 07:32 | 41.11634 | 14.09218 | 1493 ft | 133 kts | 269° |
| 2026-04-19 07:32 | 41.11639 | 14.07943 | 1499 ft | 143 kts | 269° |
| 2026-04-19 07:32 | 41.11646 | 14.06624 | 1504 ft | 144 kts | 269° |
| 2026-04-19 07:32 | 41.11651 | 14.05282 | 1505 ft | 147 kts | 269° |
| 2026-04-19 07:33 | 41.11657 | 14.03920 | 1506 ft | 149 kts | 269° |
| 2026-04-19 07:33 | 41.11663 | 14.02549 | 1501 ft | 148 kts | 269° |
| 2026-04-19 07:33 | 41.11670 | 14.01175 | 1510 ft | 150 kts | 269° |
| 2026-04-19 07:33 | 41.11675 | 13.99794 | 1497 ft | 148 kts | 269° |
| 2026-04-19 07:34 | 41.11680 | 13.98420 | 1501 ft | 150 kts | 269° |
| 2026-04-19 07:34 | 41.11686 | 13.97040 | 1501 ft | 150 kts | 269° |
| 2026-04-19 07:34 | 41.11690 | 13.95648 | 1428 ft | 152 kts | 270° |
| 2026-04-19 07:34 | 41.11696 | 13.94286 | 1348 ft | 144 kts | 270° |
| 2026-04-19 07:35 | 41.11752 | 13.92982 | 1267 ft | 141 kts | 282° |
| 2026-04-19 07:35 | 41.12038 | 13.91747 | 1193 ft | 140 kts | 287° |
| 2026-04-19 07:35 | 41.12322 | 13.90515 | 1111 ft | 139 kts | 287° |
| 2026-04-19 07:35 | 41.12600 | 13.89291 | 1039 ft | 139 kts | 287° |
| 2026-04-19 07:36 | 41.12877 | 13.88068 | 1007 ft | 137 kts | 287° |
| 2026-04-19 07:36 | 41.13148 | 13.86865 | 1004 ft | 135 kts | 287° |
| 2026-04-19 07:36 | 41.13418 | 13.85669 | 1003 ft | 135 kts | 287° |
| 2026-04-19 07:36 | 41.13687 | 13.84473 | 1001 ft | 135 kts | 287° |
| 2026-04-19 07:37 | 41.13957 | 13.83278 | 1003 ft | 135 kts | 287° |
| 2026-04-19 07:37 | 41.14226 | 13.82080 | 1004 ft | 136 kts | 287° |
| 2026-04-19 07:37 | 41.14496 | 13.80879 | 1001 ft | 136 kts | 287° |
| 2026-04-19 07:37 | 41.14766 | 13.79680 | 1004 ft | 136 kts | 287° |
| 2026-04-19 07:38 | 41.15036 | 13.78480 | 998 ft | 136 kts | 287° |
| 2026-04-19 07:38 | 41.15304 | 13.77283 | 995 ft | 135 kts | 287° |
| 2026-04-19 07:38 | 41.15572 | 13.76092 | 999 ft | 134 kts | 286° |
| 2026-04-19 07:38 | 41.15835 | 13.74923 | 996 ft | 134 kts | 287° |
| 2026-04-19 07:39 | 41.16099 | 13.73742 | 997 ft | 133 kts | 287° |
| 2026-04-19 07:39 | 41.16366 | 13.72567 | 997 ft | 132 kts | 288° |
| 2026-04-19 07:39 | 41.16625 | 13.71408 | 998 ft | 130 kts | 288° |
| 2026-04-19 07:39 | 41.16880 | 13.70256 | 996 ft | 130 kts | 288° |
| 2026-04-19 07:40 | 41.17136 | 13.69113 | 996 ft | 129 kts | 288° |
| 2026-04-19 07:40 | 41.17392 | 13.67970 | 996 ft | 129 kts | 288° |
| 2026-04-19 07:40 | 41.17647 | 13.66829 | 996 ft | 129 kts | 288° |
| 2026-04-19 07:40 | 41.17903 | 13.65685 | 998 ft | 129 kts | 288° |
| 2026-04-19 07:41 | 41.18158 | 13.64542 | 995 ft | 129 kts | 288° |
| 2026-04-19 07:41 | 41.18414 | 13.63400 | 993 ft | 130 kts | 287° |
| 2026-04-19 07:41 | 41.18670 | 13.62249 | 994 ft | 130 kts | 287° |
| 2026-04-19 07:41 | 41.18928 | 13.61093 | 993 ft | 131 kts | 287° |
| 2026-04-19 07:42 | 41.19185 | 13.59940 | 997 ft | 130 kts | 287° |
| 2026-04-19 07:42 | 41.19442 | 13.58787 | 990 ft | 131 kts | 287° |
| 2026-04-19 07:42 | 41.19699 | 13.57632 | 992 ft | 130 kts | 287° |
| 2026-04-19 07:42 | 41.19956 | 13.56478 | 991 ft | 130 kts | 287° |
| 2026-04-19 07:43 | 41.20208 | 13.55344 | 995 ft | 130 kts | 287° |
| 2026-04-19 07:43 | 41.20464 | 13.54195 | 993 ft | 130 kts | 287° |
| 2026-04-19 07:43 | 41.20723 | 13.53027 | 994 ft | 130 kts | 287° |
| 2026-04-19 07:43 | 41.20976 | 13.51889 | 994 ft | 130 kts | 287° |
| 2026-04-19 07:44 | 41.21232 | 13.50734 | 996 ft | 131 kts | 287° |
| 2026-04-19 07:44 | 41.21492 | 13.49564 | 997 ft | 131 kts | 287° |
| 2026-04-19 07:44 | 41.21747 | 13.48413 | 993 ft | 132 kts | 287° |
| 2026-04-19 07:44 | 41.22006 | 13.47246 | 992 ft | 132 kts | 287° |
| 2026-04-19 07:45 | 41.22264 | 13.46078 | 993 ft | 132 kts | 287° |
| 2026-04-19 07:45 | 41.22522 | 13.44912 | 991 ft | 131 kts | 287° |
| 2026-04-19 07:45 | 41.22780 | 13.43748 | 989 ft | 131 kts | 286° |
| 2026-04-19 07:45 | 41.23036 | 13.42588 | 990 ft | 131 kts | 287° |
| 2026-04-19 07:46 | 41.23293 | 13.41430 | 994 ft | 130 kts | 287° |
| 2026-04-19 07:46 | 41.23547 | 13.40278 | 995 ft | 131 kts | 287° |
| 2026-04-19 07:46 | 41.23803 | 13.39118 | 995 ft | 131 kts | 287° |
| 2026-04-19 07:46 | 41.24060 | 13.37954 | 995 ft | 132 kts | 286° |
| 2026-04-19 07:47 | 41.24318 | 13.36782 | 995 ft | 133 kts | 287° |
| 2026-04-19 07:47 | 41.24577 | 13.35607 | 992 ft | 132 kts | 287° |
| 2026-04-19 07:47 | 41.24834 | 13.34442 | 995 ft | 131 kts | 286° |
| 2026-04-19 07:47 | 41.25092 | 13.33271 | 996 ft | 133 kts | 286° |
| 2026-04-19 07:48 | 41.25352 | 13.32090 | 997 ft | 133 kts | 286° |
| 2026-04-19 07:48 | 41.25611 | 13.30912 | 997 ft | 132 kts | 286° |
| 2026-04-19 07:48 | 41.25867 | 13.29749 | 998 ft | 131 kts | 286° |
| 2026-04-19 07:48 | 41.26122 | 13.28590 | 996 ft | 130 kts | 286° |
| 2026-04-19 07:49 | 41.26373 | 13.27445 | 996 ft | 130 kts | 286° |
| 2026-04-19 07:49 | 41.26627 | 13.26289 | 998 ft | 130 kts | 286° |
| 2026-04-19 07:49 | 41.26881 | 13.25130 | 997 ft | 130 kts | 286° |
| 2026-04-19 07:49 | 41.27135 | 13.23970 | 997 ft | 131 kts | 286° |
| 2026-04-19 07:50 | 41.27390 | 13.22806 | 995 ft | 131 kts | 286° |
| 2026-04-19 07:50 | 41.27645 | 13.21643 | 996 ft | 131 kts | 286° |
| 2026-04-19 07:50 | 41.27900 | 13.20478 | 996 ft | 132 kts | 287° |
| 2026-04-19 07:50 | 41.28317 | 13.19408 | 1004 ft | 133 kts | 309° |
| 2026-04-19 07:51 | 41.28901 | 13.18428 | 1004 ft | 136 kts | 308° |
| 2026-04-19 07:51 | 41.29470 | 13.17444 | 1004 ft | 133 kts | 308° |
| 2026-04-19 07:51 | 41.30034 | 13.16465 | 1005 ft | 134 kts | 309° |
| 2026-04-19 07:51 | 41.30600 | 13.15478 | 1005 ft | 134 kts | 308° |
| 2026-04-19 07:52 | 41.31163 | 13.14496 | 1001 ft | 133 kts | 308° |
| 2026-04-19 07:52 | 41.31724 | 13.13517 | 1004 ft | 134 kts | 308° |
| 2026-04-19 07:52 | 41.32287 | 13.12534 | 997 ft | 133 kts | 308° |
| 2026-04-19 07:52 | 41.32846 | 13.11560 | 1000 ft | 132 kts | 308° |
| 2026-04-19 07:53 | 41.33404 | 13.10583 | 998 ft | 133 kts | 307° |
| 2026-04-19 07:53 | 41.33965 | 13.09602 | 998 ft | 133 kts | 308° |
| 2026-04-19 07:53 | 41.34526 | 13.08619 | 1000 ft | 133 kts | 308° |
| 2026-04-19 07:53 | 41.35088 | 13.07640 | 1001 ft | 133 kts | 308° |
| 2026-04-19 07:54 | 41.35653 | 13.06651 | 1004 ft | 135 kts | 308° |
| 2026-04-19 07:54 | 41.36221 | 13.05657 | 999 ft | 135 kts | 308° |
| 2026-04-19 07:54 | 41.36789 | 13.04665 | 1001 ft | 135 kts | 308° |
| 2026-04-19 07:54 | 41.37360 | 13.03663 | 1005 ft | 137 kts | 308° |
| 2026-04-19 07:55 | 41.37934 | 13.02656 | 1001 ft | 136 kts | 307° |
| 2026-04-19 07:55 | 41.38506 | 13.01655 | 999 ft | 136 kts | 308° |
| 2026-04-19 07:55 | 41.39073 | 13.00661 | 995 ft | 134 kts | 308° |
| 2026-04-19 07:55 | 41.39632 | 12.99681 | 993 ft | 132 kts | 307° |
| 2026-04-19 07:56 | 41.40187 | 12.98709 | 993 ft | 132 kts | 307° |
| 2026-04-19 07:56 | 41.40740 | 12.97736 | 988 ft | 131 kts | 307° |
| 2026-04-19 07:56 | 41.41292 | 12.96769 | 993 ft | 132 kts | 308° |
| 2026-04-19 07:56 | 41.41846 | 12.95795 | 993 ft | 132 kts | 308° |
| 2026-04-19 07:57 | 41.42401 | 12.94821 | 993 ft | 132 kts | 307° |
| 2026-04-19 07:57 | 41.42954 | 12.93849 | 992 ft | 132 kts | 307° |
| 2026-04-19 07:57 | 41.43507 | 12.92876 | 990 ft | 132 kts | 307° |
| 2026-04-19 07:57 | 41.44048 | 12.91897 | 991 ft | 131 kts | 301° |
| 2026-04-19 07:58 | 41.44466 | 12.90828 | 988 ft | 133 kts | 298° |
| 2026-04-19 07:58 | 41.44905 | 12.89746 | 984 ft | 131 kts | 298° |
| 2026-04-19 07:58 | 41.45335 | 12.88680 | 986 ft | 132 kts | 298° |
| 2026-04-19 07:58 | 41.45766 | 12.87607 | 988 ft | 130 kts | 298° |
| 2026-04-19 07:59 | 41.46195 | 12.86535 | 988 ft | 131 kts | 298° |
| 2026-04-19 07:59 | 41.46623 | 12.85467 | 987 ft | 131 kts | 298° |
| 2026-04-19 07:59 | 41.47052 | 12.84394 | 988 ft | 131 kts | 298° |
| 2026-04-19 07:59 | 41.47482 | 12.83318 | 987 ft | 131 kts | 298° |
| 2026-04-19 08:00 | 41.47913 | 12.82238 | 1002 ft | 132 kts | 299° |
| 2026-04-19 08:00 | 41.48342 | 12.81164 | 1001 ft | 130 kts | 299° |
| 2026-04-19 08:00 | 41.48768 | 12.80099 | 1000 ft | 130 kts | 299° |
| 2026-04-19 08:00 | 41.49195 | 12.79030 | 998 ft | 131 kts | 299° |
| 2026-04-19 08:01 | 41.49621 | 12.77963 | 994 ft | 130 kts | 299° |
| 2026-04-19 08:01 | 41.50062 | 12.76926 | 986 ft | 130 kts | 308° |
| 2026-04-19 08:01 | 41.50700 | 12.76063 | 984 ft | 131 kts | 316° |
| 2026-04-19 08:01 | 41.51351 | 12.75207 | 986 ft | 132 kts | 315° |
| 2026-04-19 08:02 | 41.52001 | 12.74343 | 983 ft | 131 kts | 315° |
| 2026-04-19 08:02 | 41.52650 | 12.73480 | 986 ft | 132 kts | 315° |
| 2026-04-19 08:02 | 41.53300 | 12.72614 | 985 ft | 132 kts | 315° |
| 2026-04-19 08:02 | 41.53950 | 12.71748 | 985 ft | 132 kts | 315° |
| 2026-04-19 08:03 | 41.54602 | 12.70880 | 984 ft | 132 kts | 315° |
| 2026-04-19 08:03 | 41.55254 | 12.70010 | 984 ft | 132 kts | 315° |
| 2026-04-19 08:03 | 41.55907 | 12.69140 | 983 ft | 133 kts | 315° |
| 2026-04-19 08:03 | 41.56559 | 12.68270 | 983 ft | 132 kts | 315° |
| 2026-04-19 08:04 | 41.56990 | 12.67693 | 983 ft | 133 kts | 315° |
| 2026-04-19 08:04 | 41.57641 | 12.66823 | 991 ft | 131 kts | 315° |
| 2026-04-19 08:04 | 41.58510 | 12.65770 | 1079 ft | 125 kts | 333° |
| 2026-04-19 08:04 | 41.59347 | 12.65724 | 1149 ft | 122 kts | 22° |
| 2026-04-19 08:05 | 41.59990 | 12.66426 | 1230 ft | 120 kts | 51° |
| 2026-04-19 08:05 | 41.60372 | 12.66978 | 1272 ft | 119 kts | 49° |
| 2026-04-19 08:05 | 41.61129 | 12.68042 | 1372 ft | 119 kts | 49° |
| 2026-04-19 08:05 | 41.61506 | 12.68578 | 1457 ft | 116 kts | 50° |
| 2026-04-19 08:06 | 41.62058 | 12.69367 | 1587 ft | 116 kts | 50° |
| 2026-04-19 08:06 | 41.62610 | 12.70153 | 1723 ft | 115 kts | 50° |
| 2026-04-19 08:06 | 41.63155 | 12.70932 | 1857 ft | 116 kts | 51° |
| 2026-04-19 08:06 | 41.63708 | 12.71723 | 1979 ft | 116 kts | 51° |
| 2026-04-19 08:07 | 41.64276 | 12.72535 | 1996 ft | 123 kts | 51° |
| 2026-04-19 08:07 | 41.64868 | 12.73380 | 2003 ft | 126 kts | 50° |
| 2026-04-19 08:07 | 41.65472 | 12.74245 | 2006 ft | 129 kts | 50° |
| 2026-04-19 08:07 | 41.66083 | 12.75119 | 2009 ft | 129 kts | 50° |
| 2026-04-19 08:08 | 41.66701 | 12.76002 | 2008 ft | 130 kts | 50° |
| 2026-04-19 08:08 | 41.67316 | 12.76882 | 2007 ft | 129 kts | 51° |
| 2026-04-19 08:08 | 41.67928 | 12.77760 | 2007 ft | 128 kts | 48° |
| 2026-04-19 08:08 | 41.68548 | 12.78597 | 2006 ft | 126 kts | 41° |
| 2026-04-19 08:09 | 41.69163 | 12.79411 | 2006 ft | 126 kts | 47° |
| 2026-04-19 08:09 | 41.69763 | 12.80258 | 2005 ft | 125 kts | 46° |
| 2026-04-19 08:09 | 41.70370 | 12.81093 | 2005 ft | 125 kts | 45° |
| 2026-04-19 08:09 | 41.70980 | 12.81926 | 2004 ft | 125 kts | 45° |
| 2026-04-19 08:10 | 41.71580 | 12.82742 | 2002 ft | 120 kts | 45° |
| 2026-04-19 08:10 | 41.72215 | 12.83426 | 1990 ft | 117 kts | 18° |
| 2026-04-19 08:10 | 41.73003 | 12.83352 | 1992 ft | 114 kts | 344° |
| 2026-04-19 08:10 | 41.73768 | 12.83075 | 1992 ft | 113 kts | 345° |
| 2026-04-19 08:11 | 41.74529 | 12.82807 | 1991 ft | 113 kts | 345° |
| 2026-04-19 08:11 | 41.75288 | 12.82540 | 1993 ft | 113 kts | 345° |
| 2026-04-19 08:11 | 41.76047 | 12.82272 | 1992 ft | 113 kts | 345° |